createdAt,value
2022-09-24T00:02:16.724Z,99819.22
2022-09-24T00:04:44.750Z,99822.72
2022-09-24T00:07:14.099Z,99818.88
2022-09-24T00:09:42.284Z,99814.13
2022-09-24T00:12:13.030Z,99820.56
2022-09-24T00:14:41.144Z,99823.03
2022-09-24T00:17:09.173Z,99819.00
2022-09-24T00:19:37.164Z,99814.13
2022-09-24T00:22:05.134Z,99817.75
2022-09-24T00:24:48.370Z,99814.72
2022-09-24T00:27:16.415Z,99818.78
2022-09-24T00:29:44.354Z,99809.88
2022-09-24T00:32:13.501Z,99811.44
2022-09-24T00:34:41.526Z,99815.59
2022-09-24T00:37:09.479Z,99810.09
2022-09-24T00:39:39.824Z,99808.06
2022-09-24T00:42:07.840Z,99811.66
2022-09-24T00:44:59.656Z,99808.38
2022-09-24T00:47:32.282Z,99813.00
2022-09-24T00:50:17.638Z,99809.72
2022-09-24T00:52:49.608Z,99802.06
2022-09-24T00:55:21.164Z,99807.00
2022-09-24T00:57:52.026Z,99795.41
2022-09-24T01:00:20.513Z,99804.97
2022-09-24T01:02:51.416Z,99803.72
2022-09-24T01:05:19.595Z,99798.97
2022-09-24T01:07:48.322Z,99797.94
2022-09-24T01:10:40.331Z,99803.69
2022-09-24T01:13:20.135Z,99802.91
2022-09-24T01:15:55.757Z,99811.69
2022-09-24T01:18:34.676Z,99803.03
2022-09-24T01:21:25.507Z,99803.50
2022-09-24T01:24:08.125Z,99805.97
2022-09-24T01:26:53.044Z,99805.75
2022-09-24T01:29:33.768Z,99808.66
2022-09-24T01:32:07.522Z,99816.09
2022-09-24T01:34:42.029Z,99814.38
2022-09-24T01:37:10.372Z,99820.06
2022-09-24T01:39:39.368Z,99815.63
2022-09-24T01:42:09.380Z,99812.25
2022-09-24T01:44:42.179Z,99814.81
2022-09-24T01:47:12.403Z,99809.53
2022-09-24T01:49:40.412Z,99815.16
2022-09-24T01:52:11.800Z,99819.44
2022-09-24T01:54:50.889Z,99814.47
2022-09-24T01:57:24.295Z,99819.41
2022-09-24T01:59:58.752Z,99821.25
2022-09-24T02:02:31.786Z,99822.81
2022-09-24T02:05:04.381Z,99825.41
2022-09-24T02:07:40.416Z,99818.72
2022-09-24T02:10:16.005Z,99824.13
2022-09-24T02:12:47.783Z,99826.16
2022-09-24T02:15:23.056Z,99827.91
2022-09-24T02:17:56.319Z,99828.94
2022-09-24T02:20:27.271Z,99832.41
2022-09-24T02:22:59.040Z,99836.09
2022-09-24T02:25:32.143Z,99837.09
2022-09-24T02:28:00.702Z,99848.16
2022-09-24T02:30:34.322Z,99841.84
2022-09-24T02:33:02.453Z,99841.38
2022-09-24T02:35:29.662Z,99843.16
2022-09-24T02:37:57.596Z,99840.34
2022-09-24T02:40:25.744Z,99836.84
2022-09-24T02:42:53.757Z,99837.69
2022-09-24T02:45:21.812Z,99848.38
2022-09-24T02:47:51.245Z,99841.22
2022-09-24T02:50:19.175Z,99834.44
2022-09-24T02:52:47.093Z,99838.44
2022-09-24T02:55:15.191Z,99835.47
2022-09-24T02:57:43.173Z,99841.34
2022-09-24T03:00:12.663Z,99853.25
2022-09-24T03:02:40.704Z,99858.47
2022-09-24T03:05:11.094Z,99862.31
2022-09-24T03:07:39.046Z,99861.00
2022-09-24T03:10:08.237Z,99864.34
2022-09-24T03:12:36.298Z,99867.25
2022-09-24T03:15:05.032Z,99862.03
2022-09-24T03:17:33.409Z,99871.19
2022-09-24T03:20:01.414Z,99873.09
2022-09-24T03:22:30.762Z,99874.03
2022-09-24T03:24:58.700Z,99872.63
2022-09-24T03:27:26.708Z,99874.75
2022-09-24T03:30:12.007Z,99870.31
2022-09-24T03:32:40.731Z,99875.75
2022-09-24T03:35:10.721Z,99874.00
2022-09-24T03:37:47.021Z,99871.78
2022-09-24T03:40:17.062Z,99884.69
2022-09-24T03:42:45.040Z,99879.47
2022-09-24T03:45:12.991Z,99883.00
2022-09-24T03:47:42.775Z,99884.56
2022-09-24T03:50:11.670Z,99892.84
2022-09-24T03:52:41.164Z,99896.28
2022-09-24T03:55:10.113Z,99908.22
2022-09-24T03:57:38.136Z,99909.16
2022-09-24T04:00:06.919Z,99913.31
2022-09-24T04:02:34.970Z,99911.56
2022-09-24T04:05:02.963Z,99913.44
2022-09-24T04:07:30.942Z,99924.88
2022-09-24T04:10:00.342Z,99922.84
2022-09-24T04:12:29.755Z,99922.50
2022-09-24T04:14:57.733Z,99922.88
2022-09-24T04:17:31.567Z,99921.09
2022-09-24T04:19:59.535Z,99924.28
2022-09-24T04:22:28.025Z,99930.28
2022-09-24T04:24:56.106Z,99931.88
2022-09-24T04:27:25.865Z,99935.50
2022-09-24T04:29:54.589Z,99943.75
2022-09-24T04:32:22.956Z,99943.41
2022-09-24T04:34:50.935Z,99946.72
2022-09-24T04:37:18.945Z,99944.44
2022-09-24T04:39:47.009Z,99951.06
2022-09-24T04:42:18.543Z,99948.53
2022-09-24T04:44:49.399Z,99939.28
2022-09-24T04:47:19.764Z,99945.63
2022-09-24T04:49:47.736Z,99937.03
2022-09-24T04:52:16.224Z,99945.00
2022-09-24T04:54:47.119Z,99947.66
2022-09-24T04:57:16.297Z,99944.00
2022-09-24T04:59:44.473Z,99951.22
2022-09-24T05:02:13.954Z,99948.31
2022-09-24T05:04:42.142Z,99945.97
2022-09-24T05:07:10.718Z,99950.25
2022-09-24T05:09:38.934Z,99950.97
2022-09-24T05:12:07.852Z,99950.38
2022-09-24T05:14:36.032Z,99958.69
2022-09-24T05:17:04.043Z,99960.63
2022-09-24T05:19:33.599Z,99955.13
2022-09-24T05:22:01.574Z,99958.31
2022-09-24T05:24:29.595Z,99962.41
2022-09-24T05:27:11.565Z,99956.78
2022-09-24T05:29:40.821Z,99962.41
2022-09-24T05:32:11.086Z,99957.91
2022-09-24T05:34:41.447Z,99957.72
2022-09-24T05:37:09.712Z,99953.91
2022-09-24T05:39:37.762Z,99953.34
2022-09-24T05:42:05.851Z,99954.78
2022-09-24T05:44:33.888Z,99959.03
2022-09-24T05:47:01.967Z,99962.97
2022-09-24T05:49:30.060Z,99963.34
2022-09-24T05:51:59.522Z,99969.22
2022-09-24T05:54:27.948Z,99970.81
2022-09-24T05:56:56.048Z,99970.59
2022-09-24T05:59:25.021Z,99976.25
2022-09-24T06:01:54.577Z,99970.16
2022-09-24T06:04:22.713Z,99979.31
2022-09-24T06:06:51.114Z,99976.28
2022-09-24T06:09:20.804Z,99974.22
2022-09-24T06:11:51.327Z,99975.91
2022-09-24T06:14:19.814Z,99976.69
2022-09-24T06:16:48.148Z,99979.28
2022-09-24T06:19:16.482Z,99979.34
2022-09-24T06:21:44.569Z,99973.44
2022-09-24T06:24:12.630Z,99965.56
2022-09-24T06:26:42.015Z,99975.84
2022-09-24T06:29:10.133Z,99972.78
2022-09-24T06:31:38.404Z,99980.78
2022-09-24T06:34:06.480Z,99982.72
2022-09-24T06:36:36.248Z,99985.66
2022-09-24T06:39:05.026Z,99981.13
2022-09-24T06:41:33.094Z,99983.72
2022-09-24T06:44:03.473Z,99988.13
2022-09-24T06:46:31.497Z,99989.56
2022-09-24T06:48:59.588Z,99992.19
2022-09-24T06:51:27.574Z,99988.69
2022-09-24T06:53:55.716Z,99991.28
2022-09-24T06:56:23.727Z,99991.22
2022-09-24T06:58:51.721Z,99994.91
2022-09-24T07:01:21.320Z,99993.31
2022-09-24T07:03:49.371Z,99987.09
2022-09-24T07:06:17.416Z,99988.47
2022-09-24T07:08:45.464Z,99992.72
2022-09-24T07:11:15.480Z,99994.00
2022-09-24T07:13:43.760Z,99991.09
2022-09-24T07:16:11.936Z,99993.38
2022-09-24T07:18:41.643Z,99994.78
2022-09-24T07:21:09.741Z,99991.66
2022-09-24T07:23:37.766Z,99988.28
2022-09-24T07:26:06.010Z,99986.94
2022-09-24T07:28:34.539Z,99988.88
2022-09-24T07:31:03.023Z,99986.09
2022-09-24T07:33:33.139Z,99980.00
2022-09-24T07:36:06.771Z,99982.66
2022-09-24T07:38:36.402Z,99986.34
2022-09-24T07:41:08.061Z,99979.38
2022-09-24T07:43:36.028Z,99983.44
2022-09-24T07:46:07.288Z,99978.91
2022-09-24T07:48:35.480Z,99977.75
2022-09-24T07:51:06.364Z,99975.63
2022-09-24T07:53:34.435Z,99971.97
2022-09-24T07:56:03.964Z,99966.59
2022-09-24T07:58:32.271Z,99964.66
2022-09-24T08:01:00.589Z,99965.13
2022-09-24T08:03:28.836Z,99963.50
2022-09-24T08:05:58.787Z,99965.72
2022-09-24T08:08:28.431Z,99960.00
2022-09-24T08:10:56.704Z,99963.22
2022-09-24T08:13:27.866Z,99961.75
2022-09-24T08:16:00.345Z,99964.22
2022-09-24T08:18:29.778Z,99963.81
2022-09-24T08:20:57.896Z,99956.47
2022-09-24T08:23:28.089Z,99947.59
2022-09-24T08:25:58.010Z,99945.28
2022-09-24T08:28:26.179Z,99946.50
2022-09-24T08:30:54.935Z,99946.59
2022-09-24T08:33:23.435Z,99949.72
2022-09-24T08:35:52.595Z,99942.72
2022-09-24T08:38:21.133Z,99946.72
2022-09-24T08:40:59.263Z,99939.69
2022-09-24T08:43:39.102Z,99935.16
2022-09-24T08:46:34.291Z,99930.84
2022-09-24T08:49:04.721Z,99934.78
2022-09-24T08:51:40.952Z,99929.31
2022-09-24T08:54:13.122Z,99927.03
2022-09-24T08:56:45.294Z,99922.72
2022-09-24T08:59:25.584Z,99924.34
2022-09-24T09:02:06.588Z,99925.94
2022-09-24T09:04:42.281Z,99919.31
2022-09-24T09:07:19.869Z,99922.84
2022-09-24T09:09:52.003Z,99921.69
2022-09-24T09:12:24.975Z,99926.78
2022-09-24T09:14:59.843Z,99913.81
2022-09-24T09:17:33.794Z,99909.94
2022-09-24T09:20:07.529Z,99915.03
2022-09-24T09:22:42.568Z,99913.84
2022-09-24T09:25:20.993Z,99912.69
2022-09-24T09:27:59.534Z,99907.97
2022-09-24T09:30:30.158Z,99897.75
2022-09-24T09:33:13.984Z,99892.28
2022-09-24T09:35:50.308Z,99904.78
2022-09-24T09:38:24.070Z,99897.75
2022-09-24T09:41:00.069Z,99895.78
2022-09-24T09:43:30.490Z,99896.94
2022-09-24T09:46:13.493Z,99898.47
2022-09-24T09:48:47.510Z,99895.31
2022-09-24T09:51:23.344Z,99892.19
2022-09-24T09:54:03.898Z,99882.78
2022-09-24T09:56:36.610Z,99899.25
2022-09-24T09:59:09.199Z,99886.31
2022-09-24T10:01:42.089Z,99879.59
2022-09-24T10:04:28.651Z,99884.31
2022-09-24T10:07:06.127Z,99879.59
2022-09-24T10:09:34.601Z,99873.28
2022-09-24T10:12:21.380Z,99877.94
2022-09-24T10:15:00.382Z,99867.25
2022-09-24T10:17:32.059Z,99862.06
2022-09-24T10:20:02.839Z,99867.88
2022-09-24T10:22:32.192Z,99869.84
2022-09-24T10:25:02.366Z,99868.31
2022-09-24T10:27:35.184Z,99851.81
2022-09-24T10:30:31.413Z,99851.06
2022-09-24T10:33:18.779Z,99842.38
2022-09-24T10:35:47.154Z,99839.53
2022-09-24T10:38:20.242Z,99842.66
2022-09-24T10:40:49.040Z,99836.78
2022-09-24T10:43:22.504Z,99843.78
2022-09-24T10:46:08.815Z,99839.94
2022-09-24T10:48:44.238Z,99840.88
2022-09-24T10:51:29.005Z,99835.59
2022-09-24T10:54:12.940Z,99831.66
2022-09-24T10:56:46.763Z,99826.13
2022-09-24T10:59:32.635Z,99831.22
2022-09-24T11:02:29.092Z,99827.59
2022-09-24T11:05:03.481Z,99812.75
2022-09-24T11:07:59.657Z,99817.81
2022-09-24T11:10:52.425Z,99820.13
2022-09-24T11:13:26.858Z,99809.03
2022-09-24T11:16:15.929Z,99804.69
2022-09-24T11:18:58.150Z,99808.50
2022-09-24T11:21:49.424Z,99804.09
2022-09-24T11:24:38.697Z,99802.72
2022-09-24T11:27:28.049Z,99797.22
2022-09-24T11:30:08.337Z,99796.06
2022-09-24T11:32:42.883Z,99790.81
2022-09-24T11:35:41.849Z,99788.13
2022-09-24T11:38:13.343Z,99780.97
2022-09-24T11:41:02.462Z,99771.41
2022-09-24T11:43:57.049Z,99771.88
2022-09-24T11:46:39.782Z,99777.97
2022-09-24T11:49:25.352Z,99767.31
2022-09-24T11:52:02.349Z,99769.06
2022-09-24T11:54:34.964Z,99766.41
2022-09-24T11:57:13.036Z,99769.53
2022-09-24T11:59:50.107Z,99773.78
2022-09-24T12:02:25.173Z,99772.59
2022-09-24T12:05:02.427Z,99778.88
2022-09-24T12:07:38.172Z,99774.59
2022-09-24T12:10:20.449Z,99768.25
2022-09-24T12:12:51.618Z,99773.44
2022-09-24T12:15:24.180Z,99770.22
2022-09-24T12:17:58.329Z,99773.31
2022-09-24T12:20:29.524Z,99771.00
2022-09-24T12:23:04.261Z,99775.28
2022-09-24T12:25:40.223Z,99775.75
2022-09-24T12:28:13.367Z,99766.41
2022-09-24T12:31:08.703Z,99760.47
2022-09-24T12:33:46.930Z,99764.69
2022-09-24T12:36:21.676Z,99755.84
2022-09-24T12:38:55.011Z,99759.00
2022-09-24T12:41:31.433Z,99755.13
2022-09-24T12:44:05.269Z,99755.84
2022-09-24T12:46:40.450Z,99763.72
2022-09-24T12:49:20.859Z,99754.66
2022-09-24T12:51:48.956Z,99746.34
2022-09-24T12:54:29.583Z,99746.34
2022-09-24T12:57:10.226Z,99746.28
2022-09-24T12:59:49.391Z,99743.06
2022-09-24T13:02:20.499Z,99749.09
2022-09-24T13:05:04.472Z,99749.50
2022-09-24T13:07:35.232Z,99746.50
2022-09-24T13:10:26.535Z,99741.69
2022-09-24T13:12:54.924Z,99749.50
2022-09-24T13:15:28.870Z,99745.19
2022-09-24T13:18:06.877Z,99738.91
2022-09-24T13:20:37.667Z,99741.97
2022-09-24T13:23:32.298Z,99733.81
2022-09-24T13:26:05.063Z,99738.91
2022-09-24T13:28:38.806Z,99731.75
2022-09-24T13:31:23.848Z,99732.09
2022-09-24T13:33:55.035Z,99730.44
2022-09-24T13:36:31.263Z,99724.13
2022-09-24T13:39:04.613Z,99722.91
2022-09-24T13:41:44.115Z,99720.09
2022-09-24T13:44:21.470Z,99709.00
2022-09-24T13:46:55.556Z,99705.66
2022-09-24T13:49:25.912Z,99707.22
2022-09-24T13:52:06.393Z,99707.59
2022-09-24T13:54:37.779Z,99704.03
2022-09-24T13:57:14.017Z,99706.38
2022-09-24T13:59:42.112Z,99712.00
2022-09-24T14:02:27.680Z,99703.13
2022-09-24T14:04:59.416Z,99699.19
2022-09-24T14:07:28.820Z,99702.44
2022-09-24T14:10:05.132Z,99702.81
2022-09-24T14:12:34.906Z,99694.50
2022-09-24T14:15:14.588Z,99696.53
2022-09-24T14:17:42.626Z,99697.88
2022-09-24T14:20:15.872Z,99699.94
2022-09-24T14:22:47.595Z,99700.72
2022-09-24T14:25:20.743Z,99705.00
2022-09-24T14:27:52.712Z,99707.75
2022-09-24T14:30:23.344Z,99698.34
2022-09-24T14:32:55.945Z,99693.28
2022-09-24T14:35:31.721Z,99694.88
2022-09-24T14:38:06.728Z,99696.09
2022-09-24T14:40:44.076Z,99702.44
2022-09-24T14:43:27.381Z,99710.41
2022-09-24T14:46:05.348Z,99701.41
2022-09-24T14:48:35.703Z,99705.00
2022-09-24T14:51:03.786Z,99700.72
2022-09-24T14:53:34.837Z,99697.44
2022-09-24T14:56:20.308Z,99702.97
2022-09-24T14:58:49.764Z,99703.03
2022-09-24T15:01:20.434Z,99690.16
2022-09-24T15:03:51.673Z,99689.78
2022-09-24T15:06:23.958Z,99691.44
2022-09-24T15:09:00.637Z,99682.16
2022-09-24T15:11:31.494Z,99683.06
2022-09-24T15:14:03.305Z,99687.84
2022-09-24T15:16:34.370Z,99688.34
2022-09-24T15:19:20.654Z,99691.56
2022-09-24T15:21:50.054Z,99697.88
2022-09-24T15:24:18.463Z,99686.91
2022-09-24T15:26:48.332Z,99679.13
2022-09-24T15:29:24.942Z,99685.09
2022-09-24T15:31:53.611Z,99682.38
2022-09-24T15:34:22.166Z,99695.00
2022-09-24T15:36:54.138Z,99692.34
2022-09-24T15:39:23.431Z,99698.28
2022-09-24T15:41:51.599Z,99694.47
2022-09-24T15:44:27.179Z,99696.91
2022-09-24T15:46:58.217Z,99694.19
2022-09-24T15:49:26.491Z,99697.78
2022-09-24T15:51:58.440Z,99702.94
2022-09-24T15:54:26.565Z,99705.34
2022-09-24T15:56:55.194Z,99703.78
2022-09-24T15:59:24.847Z,99707.78
2022-09-24T16:01:56.668Z,99701.13
2022-09-24T16:04:25.220Z,99713.34
2022-09-24T16:06:53.306Z,99699.69
2022-09-24T16:09:21.407Z,99700.13
2022-09-24T16:11:49.369Z,99703.28
2022-09-24T16:14:17.396Z,99715.47
2022-09-24T16:16:46.966Z,99722.16
2022-09-24T16:19:14.902Z,99720.63
2022-09-24T16:21:42.997Z,99706.94
2022-09-24T16:24:11.004Z,99705.00
2022-09-24T16:26:39.207Z,99711.25
2022-09-24T16:29:10.494Z,99709.69
2022-09-24T16:31:38.910Z,99705.00
2022-09-24T16:34:08.442Z,99710.50
2022-09-24T16:36:36.478Z,99717.19
2022-09-24T16:39:05.535Z,99719.94
2022-09-24T16:41:34.627Z,99716.41
2022-09-24T16:44:03.055Z,99721.50
2022-09-24T16:46:31.212Z,99725.81
2022-09-24T16:48:59.375Z,99722.28
2022-09-24T16:51:28.862Z,99728.56
2022-09-24T16:53:58.270Z,99728.16
2022-09-24T16:56:26.557Z,99723.84
2022-09-24T16:58:54.548Z,99724.22
2022-09-24T17:01:24.040Z,99723.06
2022-09-24T17:03:53.316Z,99730.88
2022-09-24T17:06:23.198Z,99734.72
2022-09-24T17:09:10.707Z,99735.91
2022-09-24T17:11:40.508Z,99736.28
2022-09-24T17:14:09.111Z,99738.63
2022-09-24T17:16:37.506Z,99732.72
2022-09-24T17:19:08.040Z,99731.94
2022-09-24T17:21:36.353Z,99738.56
2022-09-24T17:24:06.280Z,99737.75
2022-09-24T17:26:34.858Z,99741.25
2022-09-24T17:29:03.132Z,99741.19
2022-09-24T17:31:31.581Z,99749.00
2022-09-24T17:34:01.251Z,99748.16
2022-09-24T17:36:31.077Z,99748.53
2022-09-24T17:38:59.445Z,99750.47
2022-09-24T17:41:30.311Z,99749.66
2022-09-24T17:43:59.815Z,99747.31
2022-09-24T17:46:30.264Z,99757.44
2022-09-24T17:48:59.920Z,99750.00
2022-09-24T17:51:32.671Z,99749.19
2022-09-24T17:54:02.266Z,99752.66
2022-09-24T17:56:34.541Z,99756.13
2022-09-24T17:59:02.839Z,99751.06
2022-09-24T18:01:36.044Z,99756.09
2022-09-24T18:04:07.176Z,99754.94
2022-09-24T18:06:38.476Z,99753.75
2022-09-24T18:09:07.137Z,99759.59
2022-09-24T18:11:41.032Z,99755.25
2022-09-24T18:14:14.266Z,99759.09
2022-09-24T18:16:43.550Z,99752.84
2022-09-24T18:19:15.186Z,99751.63
2022-09-24T18:21:44.048Z,99751.56
2022-09-24T18:24:12.723Z,99762.06
2022-09-24T18:26:43.407Z,99762.03
2022-09-24T18:29:15.890Z,99767.44
2022-09-24T18:31:44.956Z,99772.13
2022-09-24T18:34:15.789Z,99765.44
2022-09-24T18:36:46.039Z,99768.53
2022-09-24T18:39:23.911Z,99773.28
2022-09-24T18:41:57.642Z,99763.81
2022-09-24T18:44:26.534Z,99774.28
2022-09-24T18:46:54.705Z,99773.47
2022-09-24T18:49:28.315Z,99759.44
2022-09-24T18:51:56.929Z,99772.28
2022-09-24T18:54:26.648Z,99778.09
2022-09-24T18:56:56.769Z,99780.88
2022-09-24T18:59:26.121Z,99776.22
2022-09-24T19:01:54.823Z,99780.94
2022-09-24T19:04:23.817Z,99775.47
2022-09-24T19:06:51.938Z,99775.41
2022-09-24T19:09:21.149Z,99774.63
2022-09-24T19:11:49.966Z,99781.28
2022-09-24T19:14:19.757Z,99772.34
2022-09-24T19:16:48.664Z,99775.94
2022-09-24T19:19:17.450Z,99780.63
2022-09-24T19:21:48.737Z,99783.72
2022-09-24T19:24:16.974Z,99784.44
2022-09-24T19:26:45.502Z,99788.59
2022-09-24T19:29:14.177Z,99788.69
2022-09-24T19:31:49.796Z,99796.03
2022-09-24T19:34:21.036Z,99800.56
2022-09-24T19:37:05.755Z,99802.81
2022-09-24T19:39:34.100Z,99808.22
2022-09-24T19:42:02.380Z,99808.09
2022-09-24T19:44:30.754Z,99813.41
2022-09-24T19:47:03.433Z,99817.97
2022-09-24T19:49:32.011Z,99820.59
2022-09-24T19:52:00.057Z,99819.34
2022-09-24T19:54:28.656Z,99821.63
2022-09-24T19:56:57.495Z,99817.22
2022-09-24T19:59:25.822Z,99821.41
2022-09-24T20:01:56.183Z,99822.88
2022-09-24T20:04:25.789Z,99825.97
2022-09-24T20:06:54.936Z,99823.41
2022-09-24T20:09:23.140Z,99820.91
2022-09-24T20:11:52.454Z,99832.78
2022-09-24T20:14:22.703Z,99836.50
2022-09-24T20:16:50.989Z,99831.28
2022-09-24T20:19:20.270Z,99830.38
2022-09-24T20:21:49.939Z,99840.00
2022-09-24T20:24:17.990Z,99839.19
2022-09-24T20:27:03.813Z,99835.59
2022-09-24T20:29:31.929Z,99838.19
2022-09-24T20:32:00.048Z,99843.91
2022-09-24T20:34:33.887Z,99848.50
2022-09-24T20:37:05.680Z,99854.22
2022-09-24T20:39:34.022Z,99851.81
2022-09-24T20:42:03.861Z,99861.84
2022-09-24T20:44:32.417Z,99860.97
2022-09-24T20:47:00.758Z,99861.28
2022-09-24T20:49:30.045Z,99867.03
2022-09-24T20:51:58.571Z,99863.81
2022-09-24T20:54:29.173Z,99865.25
2022-09-24T20:56:57.495Z,99866.31
2022-09-24T20:59:26.757Z,99872.03
2022-09-24T21:01:55.443Z,99878.53
2022-09-24T21:04:34.870Z,99874.53
2022-09-24T21:07:03.094Z,99876.28
2022-09-24T21:09:32.679Z,99875.06
2022-09-24T21:12:01.516Z,99873.88
2022-09-24T21:14:29.745Z,99876.88
2022-09-24T21:16:57.918Z,99876.00
2022-09-24T21:19:25.907Z,99877.84
2022-09-24T21:21:53.988Z,99881.69
2022-09-24T21:24:25.140Z,99880.22
2022-09-24T21:26:59.290Z,99877.41
2022-09-24T21:29:27.269Z,99873.84
2022-09-24T21:31:55.276Z,99874.97
2022-09-24T21:34:23.321Z,99872.53
2022-09-24T21:36:53.161Z,99869.66
2022-09-24T21:39:23.820Z,99877.56
2022-09-24T21:41:53.739Z,99879.38
2022-09-24T21:44:23.130Z,99874.25
2022-09-24T21:46:52.730Z,99883.44
2022-09-24T21:49:21.368Z,99875.97
2022-09-24T21:51:49.524Z,99865.66
2022-09-24T21:54:19.318Z,99858.06
2022-09-24T21:56:47.755Z,99868.53
2022-09-24T21:59:34.000Z,99868.97
2022-09-24T22:02:03.631Z,99868.00
2022-09-24T22:04:33.468Z,99867.47
2022-09-24T22:07:01.701Z,99865.78
2022-09-24T22:09:29.924Z,99862.53
2022-09-24T22:12:00.230Z,99869.03
2022-09-24T22:14:28.872Z,99859.66
2022-09-24T22:16:57.587Z,99873.81
2022-09-24T22:19:27.156Z,99878.81
2022-09-24T22:21:55.358Z,99874.06
2022-09-24T22:24:23.532Z,99879.09
2022-09-24T22:26:51.551Z,99880.03
2022-09-24T22:29:19.542Z,99878.50
2022-09-24T22:31:47.557Z,99884.06
2022-09-24T22:34:41.296Z,99882.38
2022-09-24T22:37:11.199Z,99891.69
2022-09-24T22:39:39.150Z,99888.41
2022-09-24T22:42:07.843Z,99891.47
2022-09-24T22:44:35.841Z,99891.47
2022-09-24T22:47:03.890Z,99891.59
2022-09-24T22:49:32.754Z,99894.66
2022-09-24T22:52:00.793Z,99887.66
2022-09-24T22:54:30.648Z,99890.81
2022-09-24T22:56:58.707Z,99892.19
2022-09-24T22:59:26.728Z,99891.66
2022-09-24T23:01:54.797Z,99894.22
2022-09-24T23:04:22.940Z,99884.44
2022-09-24T23:06:51.019Z,99886.00
2022-09-24T23:09:20.647Z,99884.75
2022-09-24T23:11:50.148Z,99885.91
2022-09-24T23:14:18.268Z,99888.50
2022-09-24T23:16:46.835Z,99888.84
2022-09-24T23:19:17.543Z,99885.34
2022-09-24T23:21:46.367Z,99880.72
2022-09-24T23:24:16.018Z,99882.97
2022-09-24T23:26:44.727Z,99877.44
2022-09-24T23:29:15.130Z,99881.28
2022-09-24T23:31:43.288Z,99874.19
2022-09-24T23:34:13.631Z,99877.59
2022-09-24T23:36:42.590Z,99883.19
2022-09-24T23:39:11.365Z,99882.41
2022-09-24T23:41:39.362Z,99888.16
2022-09-24T23:44:07.639Z,99888.16
2022-09-24T23:46:37.087Z,99875.06
2022-09-24T23:49:05.542Z,99885.56
2022-09-24T23:51:33.674Z,99881.16
2022-09-24T23:54:01.683Z,99882.19
2022-09-24T23:56:29.789Z,99880.47
2022-09-24T23:58:58.296Z,99876.88
